sensor_id;sensor_type;location;lat;lon;timestamp;P1;durP1;ratioP1;P2;durP2;ratioP2
24897;SDS011;12957;49.434;8.684;2022-09-30T00:01:30;5.63;;;2.47;;
24897;SDS011;12957;49.434;8.684;2022-09-30T00:03:57;2.60;;;2.40;;
24897;SDS011;12957;49.434;8.684;2022-09-30T00:06:23;4.88;;;2.70;;
24897;SDS011;12957;49.434;8.684;2022-09-30T00:08:49;2.55;;;2.35;;
24897;SDS011;12957;49.434;8.684;2022-09-30T00:11:16;5.38;;;2.65;;
24897;SDS011;12957;49.434;8.684;2022-09-30T00:13:43;3.33;;;2.63;;
24897;SDS011;12957;49.434;8.684;2022-09-30T00:16:10;5.30;;;2.55;;
24897;SDS011;12957;49.434;8.684;2022-09-30T00:18:37;3.17;;;2.80;;
24897;SDS011;12957;49.434;8.684;2022-09-30T00:21:02;3.75;;;2.42;;
24897;SDS011;12957;49.434;8.684;2022-09-30T00:23:28;5.88;;;2.55;;
24897;SDS011;12957;49.434;8.684;2022-09-30T00:25:58;3.05;;;2.85;;
24897;SDS011;12957;49.434;8.684;2022-09-30T00:28:24;3.90;;;2.45;;
24897;SDS011;12957;49.434;8.684;2022-09-30T00:30:51;4.07;;;2.30;;
24897;SDS011;12957;49.434;8.684;2022-09-30T00:33:16;5.45;;;2.30;;
24897;SDS011;12957;49.434;8.684;2022-09-30T00:35:42;6.40;;;2.40;;
24897;SDS011;12957;49.434;8.684;2022-09-30T00:38:07;4.72;;;2.40;;
24897;SDS011;12957;49.434;8.684;2022-09-30T00:40:33;3.38;;;2.42;;
24897;SDS011;12957;49.434;8.684;2022-09-30T00:42:58;3.53;;;2.30;;
24897;SDS011;12957;49.434;8.684;2022-09-30T00:45:27;2.50;;;2.05;;
24897;SDS011;12957;49.434;8.684;2022-09-30T00:47:54;6.03;;;2.50;;
24897;SDS011;12957;49.434;8.684;2022-09-30T00:50:36;3.40;;;2.20;;
24897;SDS011;12957;49.434;8.684;2022-09-30T00:53:04;12.95;;;3.13;;
24897;SDS011;12957;49.434;8.684;2022-09-30T00:55:50;3.97;;;2.22;;
24897;SDS011;12957;49.434;8.684;2022-09-30T01:00:55;3.03;;;2.40;;
24897;SDS011;12957;49.434;8.684;2022-09-30T01:03:22;7.57;;;2.78;;
24897;SDS011;12957;49.434;8.684;2022-09-30T01:05:48;4.47;;;2.30;;
24897;SDS011;12957;49.434;8.684;2022-09-30T01:08:14;5.88;;;2.60;;
24897;SDS011;12957;49.434;8.684;2022-09-30T01:10:42;3.63;;;2.13;;
24897;SDS011;12957;49.434;8.684;2022-09-30T01:13:08;3.25;;;2.25;;
24897;SDS011;12957;49.434;8.684;2022-09-30T01:15:55;7.00;;;2.30;;
24897;SDS011;12957;49.434;8.684;2022-09-30T01:21:42;4.47;;;2.75;;
24897;SDS011;12957;49.434;8.684;2022-09-30T01:24:08;3.03;;;2.75;;
24897;SDS011;12957;49.434;8.684;2022-09-30T01:32:27;3.45;;;2.35;;
24897;SDS011;12957;49.434;8.684;2022-09-30T01:37:38;8.07;;;2.60;;
24897;SDS011;12957;49.434;8.684;2022-09-30T01:46:09;3.87;;;2.70;;
24897;SDS011;12957;49.434;8.684;2022-09-30T01:49:01;4.03;;;2.28;;
24897;SDS011;12957;49.434;8.684;2022-09-30T01:51:43;5.22;;;2.50;;
24897;SDS011;12957;49.434;8.684;2022-09-30T01:57:18;4.70;;;2.47;;
24897;SDS011;12957;49.434;8.684;2022-09-30T02:02:18;5.68;;;2.40;;
24897;SDS011;12957;49.434;8.684;2022-09-30T02:04:48;12.43;;;2.85;;
24897;SDS011;12957;49.434;8.684;2022-09-30T02:07:21;7.47;;;2.95;;
24897;SDS011;12957;49.434;8.684;2022-09-30T02:09:54;2.85;;;2.60;;
24897;SDS011;12957;49.434;8.684;2022-09-30T02:12:24;4.40;;;3.07;;
24897;SDS011;12957;49.434;8.684;2022-09-30T02:15:00;4.80;;;3.53;;
24897;SDS011;12957;49.434;8.684;2022-09-30T02:17:28;6.22;;;3.17;;
24897;SDS011;12957;49.434;8.684;2022-09-30T02:22:49;4.20;;;2.90;;
24897;SDS011;12957;49.434;8.684;2022-09-30T02:25:25;4.32;;;3.33;;
24897;SDS011;12957;49.434;8.684;2022-09-30T02:27:58;3.70;;;3.33;;
24897;SDS011;12957;49.434;8.684;2022-09-30T02:30:24;4.77;;;3.10;;
24897;SDS011;12957;49.434;8.684;2022-09-30T02:32:55;3.70;;;3.05;;
24897;SDS011;12957;49.434;8.684;2022-09-30T02:35:25;6.90;;;3.10;;
24897;SDS011;12957;49.434;8.684;2022-09-30T02:38:02;8.10;;;3.22;;
24897;SDS011;12957;49.434;8.684;2022-09-30T02:40:35;2.85;;;2.40;;
24897;SDS011;12957;49.434;8.684;2022-09-30T02:43:30;3.85;;;2.67;;
24897;SDS011;12957;49.434;8.684;2022-09-30T02:51:10;4.15;;;2.70;;
24897;SDS011;12957;49.434;8.684;2022-09-30T02:53:48;6.60;;;2.70;;
24897;SDS011;12957;49.434;8.684;2022-09-30T02:59:02;5.53;;;2.65;;
24897;SDS011;12957;49.434;8.684;2022-09-30T03:01:28;2.70;;;2.47;;
24897;SDS011;12957;49.434;8.684;2022-09-30T03:03:54;5.03;;;2.80;;
24897;SDS011;12957;49.434;8.684;2022-09-30T03:06:22;3.15;;;2.30;;
24897;SDS011;12957;49.434;8.684;2022-09-30T03:08:48;5.97;;;3.20;;
24897;SDS011;12957;49.434;8.684;2022-09-30T03:11:16;2.70;;;2.50;;
24897;SDS011;12957;49.434;8.684;2022-09-30T03:16:39;3.97;;;3.03;;
24897;SDS011;12957;49.434;8.684;2022-09-30T03:30:37;4.22;;;2.42;;
24897;SDS011;12957;49.434;8.684;2022-09-30T03:33:19;4.43;;;2.65;;
24897;SDS011;12957;49.434;8.684;2022-09-30T03:35:58;4.45;;;2.50;;
24897;SDS011;12957;49.434;8.684;2022-09-30T03:41:32;5.20;;;2.58;;
24897;SDS011;12957;49.434;8.684;2022-09-30T03:44:07;4.07;;;2.80;;
24897;SDS011;12957;49.434;8.684;2022-09-30T03:46:55;5.82;;;3.08;;
24897;SDS011;12957;49.434;8.684;2022-09-30T03:49:25;6.90;;;2.90;;
24897;SDS011;12957;49.434;8.684;2022-09-30T03:51:53;3.30;;;2.97;;
24897;SDS011;12957;49.434;8.684;2022-09-30T03:54:19;6.30;;;3.35;;
24897;SDS011;12957;49.434;8.684;2022-09-30T03:56:44;3.20;;;2.90;;
24897;SDS011;12957;49.434;8.684;2022-09-30T03:59:21;5.43;;;3.07;;
24897;SDS011;12957;49.434;8.684;2022-09-30T04:01:48;6.93;;;3.35;;
24897;SDS011;12957;49.434;8.684;2022-09-30T04:04:14;5.63;;;3.00;;
24897;SDS011;12957;49.434;8.684;2022-09-30T04:06:39;4.30;;;3.22;;
24897;SDS011;12957;49.434;8.684;2022-09-30T04:09:05;6.20;;;3.13;;
24897;SDS011;12957;49.434;8.684;2022-09-30T04:11:30;10.50;;;3.00;;
24897;SDS011;12957;49.434;8.684;2022-09-30T04:13:56;5.07;;;2.88;;
24897;SDS011;12957;49.434;8.684;2022-09-30T04:16:21;4.20;;;2.83;;
24897;SDS011;12957;49.434;8.684;2022-09-30T04:18:47;5.97;;;3.27;;
24897;SDS011;12957;49.434;8.684;2022-09-30T04:21:13;6.60;;;3.30;;
24897;SDS011;12957;49.434;8.684;2022-09-30T04:23:39;3.07;;;2.77;;
24897;SDS011;12957;49.434;8.684;2022-09-30T04:26:06;3.83;;;2.92;;
24897;SDS011;12957;49.434;8.684;2022-09-30T04:28:32;4.80;;;3.03;;
24897;SDS011;12957;49.434;8.684;2022-09-30T04:30:58;4.30;;;3.03;;
24897;SDS011;12957;49.434;8.684;2022-09-30T04:33:24;4.43;;;3.30;;
24897;SDS011;12957;49.434;8.684;2022-09-30T04:35:54;7.78;;;3.50;;
24897;SDS011;12957;49.434;8.684;2022-09-30T04:38:19;6.43;;;3.25;;
24897;SDS011;12957;49.434;8.684;2022-09-30T04:40:45;7.40;;;3.42;;
24897;SDS011;12957;49.434;8.684;2022-09-30T04:43:13;3.57;;;3.23;;
24897;SDS011;12957;49.434;8.684;2022-09-30T04:45:41;6.63;;;3.15;;
24897;SDS011;12957;49.434;8.684;2022-09-30T04:48:08;5.87;;;3.43;;
24897;SDS011;12957;49.434;8.684;2022-09-30T04:50:34;7.43;;;3.20;;
24897;SDS011;12957;49.434;8.684;2022-09-30T04:52:59;11.30;;;3.47;;
24897;SDS011;12957;49.434;8.684;2022-09-30T04:55:25;7.63;;;3.73;;
24897;SDS011;12957;49.434;8.684;2022-09-30T04:57:51;2.83;;;2.63;;
24897;SDS011;12957;49.434;8.684;2022-09-30T05:00:16;4.67;;;3.30;;
24897;SDS011;12957;49.434;8.684;2022-09-30T05:02:42;5.93;;;3.30;;
24897;SDS011;12957;49.434;8.684;2022-09-30T05:05:08;3.72;;;3.42;;
24897;SDS011;12957;49.434;8.684;2022-09-30T05:07:34;7.33;;;3.40;;
24897;SDS011;12957;49.434;8.684;2022-09-30T05:10:00;7.03;;;3.33;;
24897;SDS011;12957;49.434;8.684;2022-09-30T05:12:25;16.60;;;3.47;;
24897;SDS011;12957;49.434;8.684;2022-09-30T05:14:51;5.13;;;3.70;;
24897;SDS011;12957;49.434;8.684;2022-09-30T05:17:16;4.97;;;3.00;;
24897;SDS011;12957;49.434;8.684;2022-09-30T05:19:42;7.27;;;3.57;;
24897;SDS011;12957;49.434;8.684;2022-09-30T05:22:07;6.50;;;3.50;;
24897;SDS011;12957;49.434;8.684;2022-09-30T05:24:33;5.33;;;3.20;;
24897;SDS011;12957;49.434;8.684;2022-09-30T05:27:00;3.83;;;3.10;;
24897;SDS011;12957;49.434;8.684;2022-09-30T05:29:26;6.53;;;4.00;;
24897;SDS011;12957;49.434;8.684;2022-09-30T05:31:51;6.37;;;4.40;;
24897;SDS011;12957;49.434;8.684;2022-09-30T05:34:17;7.07;;;4.57;;
24897;SDS011;12957;49.434;8.684;2022-09-30T05:36:42;8.37;;;4.73;;
24897;SDS011;12957;49.434;8.684;2022-09-30T05:39:09;7.83;;;5.03;;
24897;SDS011;12957;49.434;8.684;2022-09-30T05:41:35;8.03;;;6.27;;
24897;SDS011;12957;49.434;8.684;2022-09-30T05:44:00;8.43;;;6.03;;
24897;SDS011;12957;49.434;8.684;2022-09-30T05:46:26;9.07;;;6.00;;
24897;SDS011;12957;49.434;8.684;2022-09-30T05:48:52;7.47;;;5.37;;
24897;SDS011;12957;49.434;8.684;2022-09-30T05:51:18;7.05;;;4.20;;
24897;SDS011;12957;49.434;8.684;2022-09-30T05:53:44;4.83;;;4.10;;
24897;SDS011;12957;49.434;8.684;2022-09-30T05:56:10;10.87;;;3.90;;
24897;SDS011;12957;49.434;8.684;2022-09-30T05:58:36;7.07;;;5.33;;
24897;SDS011;12957;49.434;8.684;2022-09-30T06:01:08;8.85;;;5.63;;
24897;SDS011;12957;49.434;8.684;2022-09-30T06:03:37;9.07;;;5.05;;
24897;SDS011;12957;49.434;8.684;2022-09-30T06:06:03;9.15;;;5.18;;
24897;SDS011;12957;49.434;8.684;2022-09-30T06:08:30;14.90;;;5.50;;
24897;SDS011;12957;49.434;8.684;2022-09-30T06:10:55;7.68;;;5.78;;
24897;SDS011;12957;49.434;8.684;2022-09-30T06:13:23;8.50;;;6.00;;
24897;SDS011;12957;49.434;8.684;2022-09-30T06:15:56;8.13;;;5.87;;
24897;SDS011;12957;49.434;8.684;2022-09-30T06:18:22;9.70;;;5.20;;
24897;SDS011;12957;49.434;8.684;2022-09-30T06:20:48;10.17;;;5.57;;
24897;SDS011;12957;49.434;8.684;2022-09-30T06:23:13;8.65;;;5.88;;
24897;SDS011;12957;49.434;8.684;2022-09-30T06:25:39;13.15;;;6.20;;
24897;SDS011;12957;49.434;8.684;2022-09-30T06:28:04;14.33;;;5.80;;
24897;SDS011;12957;49.434;8.684;2022-09-30T06:30:30;8.90;;;5.65;;
24897;SDS011;12957;49.434;8.684;2022-09-30T06:32:56;13.63;;;6.22;;
24897;SDS011;12957;49.434;8.684;2022-09-30T06:35:21;8.27;;;6.10;;
24897;SDS011;12957;49.434;8.684;2022-09-30T06:37:51;10.23;;;6.07;;
24897;SDS011;12957;49.434;8.684;2022-09-30T06:40:17;7.72;;;5.25;;
24897;SDS011;12957;49.434;8.684;2022-09-30T06:42:45;12.75;;;5.90;;
24897;SDS011;12957;49.434;8.684;2022-09-30T06:45:12;12.27;;;5.78;;
24897;SDS011;12957;49.434;8.684;2022-09-30T06:47:37;11.95;;;6.32;;
24897;SDS011;12957;49.434;8.684;2022-09-30T06:50:03;8.45;;;5.28;;
24897;SDS011;12957;49.434;8.684;2022-09-30T06:52:29;7.00;;;5.38;;
24897;SDS011;12957;49.434;8.684;2022-09-30T06:54:54;5.35;;;4.72;;
24897;SDS011;12957;49.434;8.684;2022-09-30T06:57:23;5.40;;;4.65;;
24897;SDS011;12957;49.434;8.684;2022-09-30T06:59:50;7.00;;;4.57;;
24897;SDS011;12957;49.434;8.684;2022-09-30T07:02:16;6.22;;;4.00;;
24897;SDS011;12957;49.434;8.684;2022-09-30T07:04:42;5.53;;;3.70;;
24897;SDS011;12957;49.434;8.684;2022-09-30T07:07:07;4.35;;;3.65;;
24897;SDS011;12957;49.434;8.684;2022-09-30T07:09:33;8.35;;;3.58;;
24897;SDS011;12957;49.434;8.684;2022-09-30T07:11:58;4.47;;;3.22;;
24897;SDS011;12957;49.434;8.684;2022-09-30T07:14:24;9.73;;;3.88;;
24897;SDS011;12957;49.434;8.684;2022-09-30T07:16:50;5.20;;;3.63;;
24897;SDS011;12957;49.434;8.684;2022-09-30T07:19:17;13.82;;;4.40;;
24897;SDS011;12957;49.434;8.684;2022-09-30T07:21:47;4.40;;;4.00;;
24897;SDS011;12957;49.434;8.684;2022-09-30T07:24:13;5.97;;;3.45;;
24897;SDS011;12957;49.434;8.684;2022-09-30T07:26:39;5.18;;;3.40;;
24897;SDS011;12957;49.434;8.684;2022-09-30T07:29:05;7.80;;;4.13;;
24897;SDS011;12957;49.434;8.684;2022-09-30T07:31:31;5.70;;;4.00;;
24897;SDS011;12957;49.434;8.684;2022-09-30T07:33:56;4.95;;;4.35;;
24897;SDS011;12957;49.434;8.684;2022-09-30T07:36:22;6.47;;;4.18;;
24897;SDS011;12957;49.434;8.684;2022-09-30T07:38:53;7.07;;;4.43;;
24897;SDS011;12957;49.434;8.684;2022-09-30T07:41:24;6.70;;;4.63;;
24897;SDS011;12957;49.434;8.684;2022-09-30T07:43:54;6.95;;;4.80;;
24897;SDS011;12957;49.434;8.684;2022-09-30T07:46:25;7.88;;;4.95;;
24897;SDS011;12957;49.434;8.684;2022-09-30T07:48:54;6.15;;;4.78;;
24897;SDS011;12957;49.434;8.684;2022-09-30T07:51:44;9.07;;;5.53;;
24897;SDS011;12957;49.434;8.684;2022-09-30T07:54:13;7.13;;;5.32;;
24897;SDS011;12957;49.434;8.684;2022-09-30T07:56:42;9.82;;;5.40;;
24897;SDS011;12957;49.434;8.684;2022-09-30T07:59:09;7.68;;;5.10;;
24897;SDS011;12957;49.434;8.684;2022-09-30T08:01:34;10.45;;;5.38;;
24897;SDS011;12957;49.434;8.684;2022-09-30T08:04:01;11.32;;;5.80;;
24897;SDS011;12957;49.434;8.684;2022-09-30T08:06:29;9.38;;;6.00;;
24897;SDS011;12957;49.434;8.684;2022-09-30T08:08:56;9.40;;;5.97;;
24897;SDS011;12957;49.434;8.684;2022-09-30T08:11:21;10.80;;;6.03;;
24897;SDS011;12957;49.434;8.684;2022-09-30T08:13:50;9.65;;;5.78;;
24897;SDS011;12957;49.434;8.684;2022-09-30T08:16:17;7.60;;;5.57;;
24897;SDS011;12957;49.434;8.684;2022-09-30T08:18:42;10.35;;;6.20;;
24897;SDS011;12957;49.434;8.684;2022-09-30T08:21:08;10.07;;;6.45;;
24897;SDS011;12957;49.434;8.684;2022-09-30T08:23:33;8.73;;;5.43;;
24897;SDS011;12957;49.434;8.684;2022-09-30T08:28:31;8.80;;;5.63;;
24897;SDS011;12957;49.434;8.684;2022-09-30T08:33:28;7.32;;;5.63;;
24897;SDS011;12957;49.434;8.684;2022-09-30T08:35:53;16.20;;;5.15;;
24897;SDS011;12957;49.434;8.684;2022-09-30T08:38:19;6.10;;;4.90;;
24897;SDS011;12957;49.434;8.684;2022-09-30T08:43:35;15.02;;;6.45;;
24897;SDS011;12957;49.434;8.684;2022-09-30T08:46:07;16.25;;;6.70;;
24897;SDS011;12957;49.434;8.684;2022-09-30T08:51:20;12.45;;;6.18;;
24897;SDS011;12957;49.434;8.684;2022-09-30T08:53:51;9.45;;;5.85;;
24897;SDS011;12957;49.434;8.684;2022-09-30T08:56:20;7.13;;;5.10;;
24897;SDS011;12957;49.434;8.684;2022-09-30T08:58:48;14.00;;;6.45;;
24897;SDS011;12957;49.434;8.684;2022-09-30T09:01:27;15.65;;;6.00;;
24897;SDS011;12957;49.434;8.684;2022-09-30T09:03:58;7.70;;;6.35;;
24897;SDS011;12957;49.434;8.684;2022-09-30T09:09:16;9.90;;;6.47;;
24897;SDS011;12957;49.434;8.684;2022-09-30T09:17:32;12.38;;;7.47;;
24897;SDS011;12957;49.434;8.684;2022-09-30T09:20:13;14.40;;;8.82;;
24897;SDS011;12957;49.434;8.684;2022-09-30T09:22:43;11.15;;;7.75;;
24897;SDS011;12957;49.434;8.684;2022-09-30T09:25:21;11.68;;;7.03;;
24897;SDS011;12957;49.434;8.684;2022-09-30T09:27:59;13.55;;;7.30;;
24897;SDS011;12957;49.434;8.684;2022-09-30T09:30:27;10.93;;;7.50;;
24897;SDS011;12957;49.434;8.684;2022-09-30T09:32:57;12.90;;;7.30;;
24897;SDS011;12957;49.434;8.684;2022-09-30T09:38:01;15.55;;;7.28;;
24897;SDS011;12957;49.434;8.684;2022-09-30T09:40:58;9.93;;;6.22;;
24897;SDS011;12957;49.434;8.684;2022-09-30T09:46:03;11.45;;;5.80;;
24897;SDS011;12957;49.434;8.684;2022-09-30T09:48:37;10.95;;;6.65;;
24897;SDS011;12957;49.434;8.684;2022-09-30T09:51:05;10.63;;;5.95;;
24897;SDS011;12957;49.434;8.684;2022-09-30T09:53:50;7.90;;;6.38;;
24897;SDS011;12957;49.434;8.684;2022-09-30T09:56:24;8.18;;;6.13;;
24897;SDS011;12957;49.434;8.684;2022-09-30T10:01:32;11.55;;;7.30;;
24897;SDS011;12957;49.434;8.684;2022-09-30T10:09:25;7.07;;;6.18;;
24897;SDS011;12957;49.434;8.684;2022-09-30T10:14:28;15.73;;;8.85;;
24897;SDS011;12957;49.434;8.684;2022-09-30T10:16:56;12.50;;;7.55;;
24897;SDS011;12957;49.434;8.684;2022-09-30T10:19:26;13.57;;;8.30;;
24897;SDS011;12957;49.434;8.684;2022-09-30T10:24:34;9.65;;;7.05;;
24897;SDS011;12957;49.434;8.684;2022-09-30T10:27:01;10.60;;;7.80;;
24897;SDS011;12957;49.434;8.684;2022-09-30T10:29:27;10.30;;;6.53;;
24897;SDS011;12957;49.434;8.684;2022-09-30T10:31:55;14.70;;;8.85;;
24897;SDS011;12957;49.434;8.684;2022-09-30T10:34:28;12.40;;;8.23;;
24897;SDS011;12957;49.434;8.684;2022-09-30T10:36:56;14.23;;;8.00;;
24897;SDS011;12957;49.434;8.684;2022-09-30T10:39:28;13.30;;;9.50;;
24897;SDS011;12957;49.434;8.684;2022-09-30T10:44:46;13.23;;;9.15;;
24897;SDS011;12957;49.434;8.684;2022-09-30T10:47:23;13.60;;;8.60;;
24897;SDS011;12957;49.434;8.684;2022-09-30T10:49:54;17.40;;;10.38;;
24897;SDS011;12957;49.434;8.684;2022-09-30T10:52:29;16.35;;;9.75;;
24897;SDS011;12957;49.434;8.684;2022-09-30T10:55:04;14.95;;;9.55;;
24897;SDS011;12957;49.434;8.684;2022-09-30T10:57:32;18.90;;;10.73;;
24897;SDS011;12957;49.434;8.684;2022-09-30T11:00:05;19.70;;;11.05;;
24897;SDS011;12957;49.434;8.684;2022-09-30T11:05:16;14.35;;;7.43;;
24897;SDS011;12957;49.434;8.684;2022-09-30T11:07:48;20.08;;;10.98;;
24897;SDS011;12957;49.434;8.684;2022-09-30T11:10:24;16.40;;;9.57;;
24897;SDS011;12957;49.434;8.684;2022-09-30T11:16:03;17.85;;;9.27;;
24897;SDS011;12957;49.434;8.684;2022-09-30T11:21:43;11.30;;;7.88;;
24897;SDS011;12957;49.434;8.684;2022-09-30T11:26:59;12.55;;;7.82;;
24897;SDS011;12957;49.434;8.684;2022-09-30T11:29:43;8.98;;;5.85;;
24897;SDS011;12957;49.434;8.684;2022-09-30T11:35:07;12.30;;;6.80;;
24897;SDS011;12957;49.434;8.684;2022-09-30T11:38:00;9.85;;;5.50;;
24897;SDS011;12957;49.434;8.684;2022-09-30T11:43:30;6.38;;;4.13;;
24897;SDS011;12957;49.434;8.684;2022-09-30T11:57:00;4.47;;;2.97;;
24897;SDS011;12957;49.434;8.684;2022-09-30T11:59:37;6.57;;;4.13;;
24897;SDS011;12957;49.434;8.684;2022-09-30T12:02:12;6.75;;;3.83;;
24897;SDS011;12957;49.434;8.684;2022-09-30T12:04:42;4.85;;;3.70;;
24897;SDS011;12957;49.434;8.684;2022-09-30T12:07:18;7.30;;;4.70;;
24897;SDS011;12957;49.434;8.684;2022-09-30T12:09:55;9.50;;;4.28;;
24897;SDS011;12957;49.434;8.684;2022-09-30T12:12:23;8.65;;;4.43;;
24897;SDS011;12957;49.434;8.684;2022-09-30T12:14:50;7.90;;;3.20;;
24897;SDS011;12957;49.434;8.684;2022-09-30T12:17:21;5.68;;;3.40;;
24897;SDS011;12957;49.434;8.684;2022-09-30T12:19:55;6.65;;;4.38;;
24897;SDS011;12957;49.434;8.684;2022-09-30T12:22:30;4.90;;;3.60;;
24897;SDS011;12957;49.434;8.684;2022-09-30T12:24:59;4.82;;;3.40;;
24897;SDS011;12957;49.434;8.684;2022-09-30T12:27:30;5.05;;;3.35;;
24897;SDS011;12957;49.434;8.684;2022-09-30T12:30:02;4.38;;;3.13;;
24897;SDS011;12957;49.434;8.684;2022-09-30T12:49:23;6.47;;;3.83;;
24897;SDS011;12957;49.434;8.684;2022-09-30T12:51:51;6.93;;;3.78;;
24897;SDS011;12957;49.434;8.684;2022-09-30T12:54:26;5.28;;;3.70;;
24897;SDS011;12957;49.434;8.684;2022-09-30T12:56:56;3.67;;;3.35;;
24897;SDS011;12957;49.434;8.684;2022-09-30T12:59:50;5.78;;;3.35;;
24897;SDS011;12957;49.434;8.684;2022-09-30T13:02:27;4.75;;;3.30;;
24897;SDS011;12957;49.434;8.684;2022-09-30T13:10:29;5.45;;;3.92;;
24897;SDS011;12957;49.434;8.684;2022-09-30T13:15:44;6.35;;;3.75;;
24897;SDS011;12957;49.434;8.684;2022-09-30T13:20:49;10.25;;;5.18;;
24897;SDS011;12957;49.434;8.684;2022-09-30T13:26:00;5.05;;;4.00;;
24897;SDS011;12957;49.434;8.684;2022-09-30T13:28:29;8.43;;;5.10;;
24897;SDS011;12957;49.434;8.684;2022-09-30T13:31:14;5.07;;;3.78;;
24897;SDS011;12957;49.434;8.684;2022-09-30T13:47:26;6.30;;;3.70;;
24897;SDS011;12957;49.434;8.684;2022-09-30T13:49:59;6.40;;;3.60;;
24897;SDS011;12957;49.434;8.684;2022-09-30T13:52:31;5.13;;;3.50;;
24897;SDS011;12957;49.434;8.684;2022-09-30T13:54:59;4.72;;;3.22;;
24897;SDS011;12957;49.434;8.684;2022-09-30T13:57:34;4.68;;;3.10;;
24897;SDS011;12957;49.434;8.684;2022-09-30T14:00:12;3.22;;;2.90;;
24897;SDS011;12957;49.434;8.684;2022-09-30T14:16:38;4.28;;;3.00;;
24897;SDS011;12957;49.434;8.684;2022-09-30T14:19:28;4.53;;;3.53;;
24897;SDS011;12957;49.434;8.684;2022-09-30T14:22:06;3.20;;;2.67;;
24897;SDS011;12957;49.434;8.684;2022-09-30T14:24:33;5.35;;;3.42;;
24897;SDS011;12957;49.434;8.684;2022-09-30T14:32:40;2.63;;;2.30;;
24897;SDS011;12957;49.434;8.684;2022-09-30T14:35:07;3.80;;;2.10;;
24897;SDS011;12957;49.434;8.684;2022-09-30T14:38:21;3.60;;;2.00;;
24897;SDS011;12957;49.434;8.684;2022-09-30T14:40:27;1.70;;;1.60;;
24897;SDS011;12957;49.434;8.684;2022-09-30T14:42:54;3.97;;;1.65;;
24897;SDS011;12957;49.434;8.684;2022-09-30T14:45:27;2.95;;;1.60;;
24897;SDS011;12957;49.434;8.684;2022-09-30T14:47:56;3.38;;;1.67;;
24897;SDS011;12957;49.434;8.684;2022-09-30T14:50:30;3.58;;;1.77;;
24897;SDS011;12957;49.434;8.684;2022-09-30T14:53:00;3.08;;;1.50;;
24897;SDS011;12957;49.434;8.684;2022-09-30T14:55:31;1.75;;;1.65;;
24897;SDS011;12957;49.434;8.684;2022-09-30T14:58:18;1.95;;;1.20;;
24897;SDS011;12957;49.434;8.684;2022-09-30T15:03:21;2.50;;;1.65;;
24897;SDS011;12957;49.434;8.684;2022-09-30T15:05:46;2.97;;;1.70;;
24897;SDS011;12957;49.434;8.684;2022-09-30T15:08:13;2.08;;;1.73;;
24897;SDS011;12957;49.434;8.684;2022-09-30T15:10:46;2.17;;;1.67;;
24897;SDS011;12957;49.434;8.684;2022-09-30T15:13:13;2.25;;;1.67;;
24897;SDS011;12957;49.434;8.684;2022-09-30T15:15:39;3.08;;;1.70;;
24897;SDS011;12957;49.434;8.684;2022-09-30T15:20:49;2.42;;;1.73;;
24897;SDS011;12957;49.434;8.684;2022-09-30T15:23:19;1.60;;;1.50;;
24897;SDS011;12957;49.434;8.684;2022-09-30T15:25:48;1.52;;;1.42;;
24897;SDS011;12957;49.434;8.684;2022-09-30T15:28:13;1.80;;;1.50;;
24897;SDS011;12957;49.434;8.684;2022-09-30T15:30:39;1.40;;;1.30;;
24897;SDS011;12957;49.434;8.684;2022-09-30T15:33:11;3.13;;;1.73;;
24897;SDS011;12957;49.434;8.684;2022-09-30T15:35:39;3.38;;;1.60;;
24897;SDS011;12957;49.434;8.684;2022-09-30T15:38:06;3.95;;;1.50;;
24897;SDS011;12957;49.434;8.684;2022-09-30T15:40:32;1.58;;;1.48;;
24897;SDS011;12957;49.434;8.684;2022-09-30T15:43:11;1.88;;;1.50;;
24897;SDS011;12957;49.434;8.684;2022-09-30T15:45:43;1.58;;;1.35;;
24897;SDS011;12957;49.434;8.684;2022-09-30T15:50:57;2.92;;;1.45;;
24897;SDS011;12957;49.434;8.684;2022-09-30T15:53:44;4.53;;;1.60;;
24897;SDS011;12957;49.434;8.684;2022-09-30T15:56:14;1.27;;;1.20;;
24897;SDS011;12957;49.434;8.684;2022-09-30T15:58:58;2.65;;;1.38;;
24897;SDS011;12957;49.434;8.684;2022-09-30T16:06:48;1.83;;;1.60;;
24897;SDS011;12957;49.434;8.684;2022-09-30T16:11:44;2.88;;;1.67;;
24897;SDS011;12957;49.434;8.684;2022-09-30T16:14:18;2.03;;;1.63;;
24897;SDS011;12957;49.434;8.684;2022-09-30T16:16:51;1.88;;;1.75;;
24897;SDS011;12957;49.434;8.684;2022-09-30T16:19:17;5.07;;;2.00;;
24897;SDS011;12957;49.434;8.684;2022-09-30T16:21:44;3.22;;;1.85;;
24897;SDS011;12957;49.434;8.684;2022-09-30T16:26:51;3.22;;;2.17;;
24897;SDS011;12957;49.434;8.684;2022-09-30T16:29:20;3.10;;;1.90;;
24897;SDS011;12957;49.434;8.684;2022-09-30T16:31:47;2.05;;;1.77;;
24897;SDS011;12957;49.434;8.684;2022-09-30T16:34:26;5.68;;;2.08;;
24897;SDS011;12957;49.434;8.684;2022-09-30T16:36:53;2.85;;;1.83;;
24897;SDS011;12957;49.434;8.684;2022-09-30T16:39:27;4.10;;;2.00;;
24897;SDS011;12957;49.434;8.684;2022-09-30T16:41:52;1.60;;;1.50;;
24897;SDS011;12957;49.434;8.684;2022-09-30T16:44:18;3.55;;;1.55;;
24897;SDS011;12957;49.434;8.684;2022-09-30T16:46:45;1.60;;;1.50;;
24897;SDS011;12957;49.434;8.684;2022-09-30T16:49:11;2.40;;;1.88;;
24897;SDS011;12957;49.434;8.684;2022-09-30T16:51:38;2.88;;;1.92;;
24897;SDS011;12957;49.434;8.684;2022-09-30T16:54:04;3.53;;;1.70;;
24897;SDS011;12957;49.434;8.684;2022-09-30T16:56:29;1.60;;;1.50;;
24897;SDS011;12957;49.434;8.684;2022-09-30T16:58:55;1.90;;;1.70;;
24897;SDS011;12957;49.434;8.684;2022-09-30T17:01:21;2.53;;;1.52;;
24897;SDS011;12957;49.434;8.684;2022-09-30T17:03:48;7.18;;;1.90;;
24897;SDS011;12957;49.434;8.684;2022-09-30T17:06:14;7.10;;;1.80;;
24897;SDS011;12957;49.434;8.684;2022-09-30T17:08:41;3.08;;;1.85;;
24897;SDS011;12957;49.434;8.684;2022-09-30T17:11:07;5.55;;;1.63;;
24897;SDS011;12957;49.434;8.684;2022-09-30T17:13:34;3.58;;;1.60;;
24897;SDS011;12957;49.434;8.684;2022-09-30T17:15:59;1.95;;;1.50;;
24897;SDS011;12957;49.434;8.684;2022-09-30T17:18:25;2.25;;;1.70;;
24897;SDS011;12957;49.434;8.684;2022-09-30T17:20:51;6.25;;;1.80;;
24897;SDS011;12957;49.434;8.684;2022-09-30T17:23:20;2.30;;;1.58;;
24897;SDS011;12957;49.434;8.684;2022-09-30T17:25:47;2.00;;;1.75;;
24897;SDS011;12957;49.434;8.684;2022-09-30T17:28:12;2.78;;;1.65;;
24897;SDS011;12957;49.434;8.684;2022-09-30T17:30:38;5.57;;;1.80;;
24897;SDS011;12957;49.434;8.684;2022-09-30T17:33:05;5.35;;;1.88;;
24897;SDS011;12957;49.434;8.684;2022-09-30T17:35:31;4.70;;;1.85;;
24897;SDS011;12957;49.434;8.684;2022-09-30T17:37:57;4.97;;;1.77;;
24897;SDS011;12957;49.434;8.684;2022-09-30T17:40:24;2.45;;;1.75;;
24897;SDS011;12957;49.434;8.684;2022-09-30T17:43:08;3.72;;;1.70;;
24897;SDS011;12957;49.434;8.684;2022-09-30T17:45:40;2.33;;;2.08;;
24897;SDS011;12957;49.434;8.684;2022-09-30T17:48:07;4.72;;;2.58;;
24897;SDS011;12957;49.434;8.684;2022-09-30T17:50:41;2.85;;;2.28;;
24897;SDS011;12957;49.434;8.684;2022-09-30T17:53:08;5.15;;;2.25;;
24897;SDS011;12957;49.434;8.684;2022-09-30T17:55:37;3.60;;;2.20;;
24897;SDS011;12957;49.434;8.684;2022-09-30T17:58:03;4.80;;;1.98;;
24897;SDS011;12957;49.434;8.684;2022-09-30T18:00:29;6.95;;;1.92;;
24897;SDS011;12957;49.434;8.684;2022-09-30T18:02:55;4.75;;;2.28;;
24897;SDS011;12957;49.434;8.684;2022-09-30T18:05:20;5.60;;;2.00;;
24897;SDS011;12957;49.434;8.684;2022-09-30T18:07:46;2.92;;;1.90;;
24897;SDS011;12957;49.434;8.684;2022-09-30T18:10:11;3.20;;;2.08;;
24897;SDS011;12957;49.434;8.684;2022-09-30T18:12:37;4.25;;;2.42;;
24897;SDS011;12957;49.434;8.684;2022-09-30T18:15:03;9.52;;;2.53;;
24897;SDS011;12957;49.434;8.684;2022-09-30T18:17:30;4.85;;;2.35;;
24897;SDS011;12957;49.434;8.684;2022-09-30T18:19:55;4.32;;;2.75;;
24897;SDS011;12957;49.434;8.684;2022-09-30T18:22:20;2.80;;;2.60;;
24897;SDS011;12957;49.434;8.684;2022-09-30T18:24:46;3.42;;;2.10;;